Time;durP1;ratioP1;P1;durP2;ratioP2;P2;SDS_P1;SDS_P2;PMS_P1;PMS_P2;Temp;Humidity;BMP_temperature;BMP_pressure;BME280_temperature;BME280_humidity;BME280_pressure;Samples;Min_cycle;Max_cycle;Signal;HPM_P1;HPM_P2
2022/10/20 00:00:32;;;;;;;20.77;19.08;;;;;;;11.79;100.00;98862.88;4100147;28;20207;-66
2022/10/20 00:02:33;;;;;;;20.30;18.45;;;;;;;11.76;100.00;98847.75;4104528;28;20206;-62
2022/10/20 00:04:35;;;;;;;20.10;18.55;;;;;;;11.92;100.00;98857.88;4105065;28;20218;-63
2022/10/20 00:06:37;;;;;;;20.25;18.45;;;;;;;11.96;100.00;98860.97;4102646;28;20229;-63
2022/10/20 00:08:39;;;;;;;23.63;16.67;;;;;;;12.08;100.00;98864.44;4086826;28;20283;-65
2022/10/20 00:10:41;;;;;;;19.50;17.95;;;;;;;12.14;100.00;98863.44;4100338;28;20226;-64
2022/10/20 00:12:42;;;;;;;23.95;16.80;;;;;;;12.16;100.00;98853.88;4105633;28;20243;-64
2022/10/20 00:14:44;;;;;;;19.23;17.52;;;;;;;11.81;100.00;98850.59;4104438;28;20211;-63
2022/10/20 00:16:45;;;;;;;20.02;18.27;;;;;;;12.03;100.00;98848.72;4101967;28;20739;-65
2022/10/20 00:18:47;;;;;;;20.67;19.08;;;;;;;11.76;100.00;98841.47;4106818;28;21011;-65
2022/10/20 00:20:49;;;;;;;17.90;16.33;;;;;;;11.91;100.00;98839.75;4103898;28;20254;-63
2022/10/20 00:22:50;;;;;;;17.23;15.85;;;;;;;11.97;100.00;98844.25;4107529;28;20202;-63
2022/10/20 00:24:52;;;;;;;18.42;17.02;;;;;;;11.89;100.00;98841.94;4107016;28;20215;-63
2022/10/20 00:26:53;;;;;;;20.88;19.17;;;;;;;11.89;100.00;98836.44;4104755;28;20226;-65
2022/10/20 00:28:55;;;;;;;17.85;16.52;;;;;;;11.83;100.00;98829.22;4106802;28;21861;-63
2022/10/20 00:30:56;;;;;;;19.23;17.75;;;;;;;11.66;100.00;98822.94;4105128;28;20657;-65
2022/10/20 00:32:58;;;;;;;21.70;19.58;;;;;;;11.47;100.00;98809.66;4108464;28;20203;-63
2022/10/20 00:34:59;;;;;;;21.58;19.17;;;;;;;11.41;100.00;98808.75;4107755;28;20211;-66
2022/10/20 00:37:01;;;;;;;21.33;19.20;;;;;;;11.38;100.00;98812.00;4105135;28;20710;-65
2022/10/20 00:39:03;;;;;;;21.95;19.90;;;;;;;11.46;100.00;98808.88;4110140;28;20267;-63
2022/10/20 00:41:05;;;;;;;21.45;19.25;;;;;;;11.39;100.00;98813.69;4108801;28;20214;-65
2022/10/20 00:43:11;;;;;;;25.45;21.52;;;;;;;11.35;100.00;98803.44;4108925;28;20293;-64
2022/10/20 00:45:19;;;;;;;24.90;20.20;;;;;;;11.24;100.00;98798.88;4107464;28;20245;-65
2022/10/20 00:47:45;;;;;;;19.63;18.02;;;;;;;11.37;100.00;98802.09;4107410;28;20621;-65
2022/10/20 00:49:51;;;;;;;23.20;19.38;;;;;;;11.33;100.00;98803.69;4113270;28;20257;-64
2022/10/20 00:51:53;;;;;;;20.13;18.63;;;;;;;11.47;100.00;98791.34;4106983;28;20238;-66
2022/10/20 00:54:01;;;;;;;22.83;20.83;;;;;;;11.37;100.00;98785.66;4107388;28;20214;-65
2022/10/20 00:56:03;;;;;;;21.00;19.30;;;;;;;11.36;100.00;98781.28;4119729;28;20232;-64
2022/10/20 00:58:05;;;;;;;20.70;19.02;;;;;;;11.37;100.00;98777.44;4105516;28;20207;-65
2022/10/20 01:00:07;;;;;;;24.25;21.80;;;;;;;11.28;100.00;98778.94;4120273;28;20212;-65
2022/10/20 01:02:09;;;;;;;22.48;20.35;;;;;;;11.17;100.00;98779.84;4104942;28;20313;-64
2022/10/20 01:04:11;;;;;;;23.27;21.23;;;;;;;11.33;100.00;98786.41;4106981;28;20262;-64
2022/10/20 01:06:14;;;;;;;21.83;19.90;;;;;;;11.31;100.00;98789.41;4104360;28;20227;-66
2022/10/20 01:08:21;;;;;;;23.05;19.75;;;;;;;11.32;100.00;98785.56;4108331;28;20233;-65
2022/10/20 01:10:24;;;;;;;21.83;19.92;;;;;;;11.18;100.00;98792.44;4103618;28;20996;-64
2022/10/20 01:12:32;;;;;;;22.58;20.52;;;;;;;11.20;100.00;98782.09;4102083;28;20207;-64
2022/10/20 01:14:48;;;;;;;22.55;20.35;;;;;;;11.34;100.00;98780.69;4104994;28;20206;-65
2022/10/20 01:16:58;;;;;;;24.58;21.98;;;;;;;11.14;100.00;98788.56;4105323;28;20366;-64
2022/10/20 01:19:17;;;;;;;22.42;20.67;;;;;;;11.24;100.00;98788.72;4106618;28;20215;-67
2022/10/20 01:21:43;;;;;;;23.85;21.92;;;;;;;11.26;100.00;98781.13;4102860;28;20206;-66
2022/10/20 01:24:03;;;;;;;23.65;21.35;;;;;;;11.21;100.00;98786.50;4105405;28;20203;-63
2022/10/20 01:26:14;;;;;;;24.65;22.17;;;;;;;11.31;100.00;98778.44;4109012;28;20277;-64
2022/10/20 01:28:23;;;;;;;23.42;20.90;;;;;;;11.46;100.00;98781.47;4107462;28;20261;-63
2022/10/20 01:30:25;;;;;;;24.83;22.40;;;;;;;11.27;100.00;98777.28;4089032;28;20579;-65
2022/10/20 01:32:41;;;;;;;23.67;21.35;;;;;;;11.21;100.00;98777.44;4108265;28;20691;-64
2022/10/20 01:34:56;;;;;;;24.38;20.90;;;;;;;11.20;100.00;98776.63;4106224;28;20901;-65
2022/10/20 01:37:20;;;;;;;24.60;22.20;;;;;;;11.24;100.00;98774.22;4121466;28;20230;-64
2022/10/20 01:39:53;;;;;;;22.48;20.10;;;;;;;11.30;100.00;98768.56;4100322;28;20801;-65
2022/10/20 01:41:59;;;;;;;25.42;20.90;;;;;;;11.33;100.00;98759.88;4103285;28;20241;-64
2022/10/20 01:44:04;;;;;;;22.52;20.35;;;;;;;11.27;100.00;98751.78;4121648;28;20269;-65
2022/10/20 01:46:06;;;;;;;23.10;20.30;;;;;;;11.13;100.00;98743.09;4120685;28;20803;-64
2022/10/20 01:48:09;;;;;;;25.10;22.83;;;;;;;11.03;100.00;98739.34;4102344;28;20222;-63
2022/10/20 01:53:32;;;;;;;31.67;21.05;;;;;;;11.12;100.00;98741.41;4095208;28;20287;-64
2022/10/20 01:55:35;;;;;;;25.40;23.13;;;;;;;11.25;100.00;98749.28;4108157;28;20316;-63
2022/10/20 01:58:03;;;;;;;24.63;22.10;;;;;;;11.31;100.00;98745.56;4102765;28;20680;-64
2022/10/20 02:00:12;;;;;;;25.30;22.70;;;;;;;11.15;100.00;98735.44;4102014;28;20265;-64
2022/10/20 02:02:21;;;;;;;23.83;21.42;;;;;;;11.05;100.00;98726.22;4117452;28;20260;-64
2022/10/20 02:04:45;;;;;;;23.83;21.52;;;;;;;11.02;100.00;98724.81;4105639;28;20210;-65
2022/10/20 02:06:57;;;;;;;25.42;22.58;;;;;;;11.11;100.00;98723.31;4104718;28;20230;-64
2022/10/20 02:09:13;;;;;;;24.13;22.13;;;;;;;11.16;100.00;98730.78;4104255;28;20872;-64
2022/10/20 02:11:49;;;;;;;22.88;20.85;;;;;;;11.21;100.00;98733.59;4102520;28;20273;-64
2022/10/20 02:13:52;;;;;;;22.50;20.20;;;;;;;11.16;100.00;98737.09;4080741;28;20218;-64
2022/10/20 02:15:56;;;;;;;22.88;20.65;;;;;;;11.23;100.00;98729.53;4103110;28;20223;-65
2022/10/20 02:18:00;;;;;;;22.30;20.30;;;;;;;11.23;100.00;98732.28;4103323;28;20925;-64
2022/10/20 02:20:04;;;;;;;22.85;20.63;;;;;;;11.34;100.00;98736.88;4121140;28;20210;-65
2022/10/20 02:22:08;;;;;;;24.83;22.67;;;;;;;11.31;100.00;98740.09;4105848;28;20211;-65
2022/10/20 02:24:10;;;;;;;22.08;20.25;;;;;;;11.22;100.00;98736.09;4105738;28;20226;-64
2022/10/20 02:26:14;;;;;;;23.90;21.17;;;;;;;11.19;100.00;98739.38;4108026;28;20293;-63
2022/10/20 02:28:16;;;;;;;23.45;21.27;;;;;;;11.29;100.00;98731.28;4106257;28;20207;-62
2022/10/20 02:30:18;;;;;;;24.83;20.23;;;;;;;11.30;100.00;98727.47;4103904;28;20207;-64
2022/10/20 02:32:20;;;;;;;23.67;21.58;;;;;;;11.38;100.00;98723.50;4120473;28;20249;-65
2022/10/20 02:34:25;;;;;;;22.15;19.83;;;;;;;11.32;100.00;98719.00;4105156;28;20328;-63
2022/10/20 02:36:28;;;;;;;24.17;22.02;;;;;;;11.35;100.00;98724.81;4104019;28;20226;-63
2022/10/20 02:38:30;;;;;;;24.08;21.63;;;;;;;11.30;100.00;98721.19;4107581;28;20608;-64
2022/10/20 02:40:31;;;;;;;23.17;20.80;;;;;;;11.21;100.00;98718.03;4104047;28;20250;-63
2022/10/20 02:42:33;;;;;;;21.90;19.75;;;;;;;11.26;100.00;98720.00;4103920;28;20294;-65
2022/10/20 02:44:34;;;;;;;21.60;19.73;;;;;;;11.16;100.00;98709.72;4100013;28;20226;-63
2022/10/20 02:46:36;;;;;;;22.13;20.10;;;;;;;11.20;100.00;98715.53;4101600;28;20238;-64
2022/10/20 02:48:37;;;;;;;23.40;21.05;;;;;;;11.20;100.00;98710.88;4103714;28;20277;-64
2022/10/20 02:50:39;;;;;;;23.60;21.27;;;;;;;11.25;100.00;98716.44;4105842;28;20433;-63
2022/10/20 02:52:41;;;;;;;20.52;18.52;;;;;;;11.34;100.00;98716.84;4104075;28;20211;-65
2022/10/20 02:54:42;;;;;;;20.92;19.08;;;;;;;11.28;100.00;98707.72;4087683;28;20200;-63
2022/10/20 02:56:44;;;;;;;21.25;19.45;;;;;;;11.14;100.00;98717.34;4105662;28;20227;-64
2022/10/20 02:58:45;;;;;;;22.40;20.48;;;;;;;11.18;100.00;98713.03;4104742;28;20210;-64
2022/10/20 03:00:49;;;;;;;20.58;18.75;;;;;;;11.27;100.00;98705.22;4105754;28;20206;-63
2022/10/20 03:02:51;;;;;;;20.45;18.55;;;;;;;11.30;100.00;98704.75;4119059;28;20206;-62
2022/10/20 03:04:52;;;;;;;22.88;19.75;;;;;;;11.23;100.00;98704.09;4102263;28;20826;-63
2022/10/20 03:06:53;;;;;;;21.52;19.60;;;;;;;11.19;100.00;98711.97;4105169;28;21065;-65
2022/10/20 03:08:55;;;;;;;23.60;21.40;;;;;;;11.17;100.00;98716.84;4105866;28;20278;-65
2022/10/20 03:10:56;;;;;;;24.92;21.92;;;;;;;11.18;100.00;98709.47;4102707;28;20232;-65
2022/10/20 03:12:58;;;;;;;22.05;20.05;;;;;;;11.30;100.00;98705.56;4107195;28;20210;-62
2022/10/20 03:14:59;;;;;;;24.50;20.38;;;;;;;11.16;100.00;98698.75;4105482;28;20215;-63
2022/10/20 03:17:01;;;;;;;20.02;17.92;;;;;;;11.22;100.00;98692.28;4102968;28;20235;-65
2022/10/20 03:19:02;;;;;;;21.52;19.52;;;;;;;11.27;100.00;98695.09;4102409;28;20210;-62
2022/10/20 03:21:07;;;;;;;20.23;18.30;;;;;;;11.27;100.00;98689.63;4104287;28;20203;-63
2022/10/20 03:23:09;;;;;;;22.02;19.42;;;;;;;11.29;100.00;98676.50;4103429;28;20222;-63
2022/10/20 03:25:10;;;;;;;21.25;18.80;;;;;;;11.38;100.00;98696.09;4105441;28;20221;-63
2022/10/20 03:27:12;;;;;;;20.88;19.05;;;;;;;11.40;100.00;98683.81;4106807;28;20890;-64
2022/10/20 03:29:13;;;;;;;21.58;19.73;;;;;;;11.46;100.00;98692.94;4100552;28;20238;-63
2022/10/20 03:31:15;;;;;;;18.48;16.80;;;;;;;11.35;100.00;98686.47;4103371;28;20281;-65
2022/10/20 03:33:16;;;;;;;20.90;19.00;;;;;;;11.26;100.00;98682.50;4102898;28;20202;-64
2022/10/20 03:35:18;;;;;;;20.58;18.73;;;;;;;11.14;100.00;98679.00;4101210;28;20211;-65
2022/10/20 03:37:19;;;;;;;19.90;18.00;;;;;;;11.29;100.00;98681.13;4118430;28;20233;-65
2022/10/20 03:39:21;;;;;;;21.30;19.17;;;;;;;11.17;100.00;98689.47;4103195;28;20210;-64
2022/10/20 03:41:22;;;;;;;19.25;17.35;;;;;;;11.30;100.00;98680.91;4104449;28;20202;-66
2022/10/20 03:43:24;;;;;;;18.52;16.85;;;;;;;11.26;100.00;98676.19;4104295;28;20663;-65
2022/10/20 03:45:25;;;;;;;21.75;18.55;;;;;;;11.09;100.00;98681.66;4105384;28;20727;-64
2022/10/20 03:47:27;;;;;;;18.75;17.20;;;;;;;11.21;100.00;98673.34;4107683;28;21046;-64
2022/10/20 03:49:30;;;;;;;19.85;18.33;;;;;;;11.05;100.00;98674.19;4105152;28;20670;-63
2022/10/20 03:51:31;;;;;;;18.52;16.90;;;;;;;11.18;100.00;98674.69;4101803;28;20230;-62
2022/10/20 03:53:33;;;;;;;20.70;18.88;;;;;;;11.18;100.00;98666.47;4102434;28;20277;-64
2022/10/20 03:55:36;;;;;;;18.95;17.42;;;;;;;11.16;100.00;98654.94;4099948;28;20277;-62
2022/10/20 03:57:37;;;;;;;19.38;17.75;;;;;;;11.20;100.00;98656.09;4101217;28;20642;-63
2022/10/20 03:59:39;;;;;;;19.65;18.05;;;;;;;11.16;100.00;98649.47;4104312;28;20230;-63
2022/10/20 04:01:43;;;;;;;20.30;18.63;;;;;;;11.04;100.00;98650.63;4100068;28;20265;-63
2022/10/20 04:03:44;;;;;;;19.90;18.08;;;;;;;10.99;100.00;98648.66;4090297;28;20204;-62
2022/10/20 04:05:46;;;;;;;21.23;19.27;;;;;;;10.88;100.00;98641.34;4104787;28;20260;-65
2022/10/20 04:07:47;;;;;;;21.15;19.23;;;;;;;10.93;100.00;98648.81;4106787;28;20847;-61
2022/10/20 04:09:49;;;;;;;19.30;17.83;;;;;;;10.91;100.00;98646.31;4103014;28;20721;-62
2022/10/20 04:11:50;;;;;;;19.17;17.40;;;;;;;10.99;100.00;98645.91;4100448;28;21021;-62
2022/10/20 04:13:52;;;;;;;19.88;18.17;;;;;;;10.97;100.00;98648.06;4106717;28;20215;-62
2022/10/20 04:15:53;;;;;;;18.73;16.65;;;;;;;10.99;100.00;98639.59;4107543;28;20226;-63
2022/10/20 04:17:55;;;;;;;21.05;19.05;;;;;;;11.03;100.00;98636.09;4109347;28;20234;-64
2022/10/20 04:19:56;;;;;;;20.10;18.15;;;;;;;10.84;100.00;98622.94;4106772;28;20207;-62
2022/10/20 04:21:58;;;;;;;19.23;17.50;;;;;;;10.82;100.00;98625.91;4106619;28;20211;-63
2022/10/20 04:23:59;;;;;;;20.80;19.17;;;;;;;10.78;100.00;98624.72;4107879;28;20214;-66
2022/10/20 04:26:11;;;;;;;17.65;16.25;;;;;;;10.73;100.00;98609.31;4106046;28;20238;-65
2022/10/20 04:28:14;;;;;;;19.70;18.05;;;;;;;10.62;100.00;98608.31;4120823;28;20205;-63
2022/10/20 04:30:15;;;;;;;21.40;18.50;;;;;;;10.69;100.00;98613.63;4106567;28;21143;-64
2022/10/20 04:32:17;;;;;;;21.38;19.38;;;;;;;10.76;100.00;98608.81;4103322;28;20210;-64
2022/10/20 04:34:18;;;;;;;20.02;18.42;;;;;;;10.79;100.00;98599.03;4106614;28;20207;-63
2022/10/20 04:36:20;;;;;;;25.30;17.80;;;;;;;10.76;100.00;98617.03;4106469;28;22169;-65
2022/10/20 04:38:21;;;;;;;20.48;18.48;;;;;;;10.79;100.00;98604.50;4108139;28;20207;-65
2022/10/20 04:40:23;;;;;;;19.10;17.40;;;;;;;10.88;100.00;98608.50;4108782;28;20203;-63
2022/10/20 04:42:24;;;;;;;18.83;17.15;;;;;;;11.01;100.00;98597.19;4107409;28;20273;-64
2022/10/20 04:44:26;;;;;;;17.80;16.42;;;;;;;10.83;100.00;98604.84;4104505;28;20215;-65
2022/10/20 04:46:27;;;;;;;18.33;16.65;;;;;;;10.82;100.00;98604.00;4103423;28;20235;-63
2022/10/20 04:48:29;;;;;;;18.65;16.63;;;;;;;10.88;100.00;98613.97;4108110;28;20211;-63
2022/10/20 04:50:30;;;;;;;19.33;17.38;;;;;;;10.96;100.00;98615.44;4107765;28;20737;-65
2022/10/20 04:52:32;;;;;;;17.50;16.00;;;;;;;11.08;100.00;98619.75;4108413;28;20226;-63
2022/10/20 04:54:33;;;;;;;18.55;16.80;;;;;;;11.16;100.00;98622.06;4107794;28;20333;-62
2022/10/20 04:56:35;;;;;;;17.48;15.95;;;;;;;11.16;100.00;98611.13;4108209;28;20230;-65
2022/10/20 04:58:36;;;;;;;19.17;15.55;;;;;;;11.22;100.00;98612.84;4106142;28;20222;-62
2022/10/20 05:00:38;;;;;;;16.10;14.85;;;;;;;11.24;100.00;98618.09;4108132;28;20211;-63
2022/10/20 05:02:39;;;;;;;17.15;15.88;;;;;;;11.06;100.00;98621.94;4108387;28;20206;-63
2022/10/20 05:04:41;;;;;;;17.45;15.88;;;;;;;11.02;100.00;98601.59;4107497;28;20234;-64
2022/10/20 05:06:42;;;;;;;16.60;15.30;;;;;;;10.83;100.00;98610.34;4104710;28;20710;-62
2022/10/20 05:08:45;;;;;;;18.25;16.63;;;;;;;10.96;100.00;98605.31;4105509;28;20221;-65
2022/10/20 05:10:47;;;;;;;17.25;15.75;;;;;;;10.92;100.00;98609.63;4103037;28;20207;-63
2022/10/20 05:12:48;;;;;;;17.67;16.08;;;;;;;10.88;100.00;98604.09;4106434;28;20262;-63
2022/10/20 05:14:50;;;;;;;16.83;15.52;;;;;;;10.87;100.00;98607.94;4107396;28;20210;-63
2022/10/20 05:16:51;;;;;;;19.58;17.27;;;;;;;10.77;100.00;98605.00;4104748;28;20226;-62
2022/10/20 05:18:53;;;;;;;17.65;16.25;;;;;;;10.77;100.00;98605.00;4102932;28;21001;-63
2022/10/20 05:20:54;;;;;;;19.05;17.30;;;;;;;10.72;100.00;98588.50;4105944;28;20213;-64
2022/10/20 05:23:11;;;;;;;20.83;18.00;;;;;;;10.55;100.00;98584.94;4106674;28;20209;-61
2022/10/20 05:25:13;;;;;;;17.92;16.33;;;;;;;10.59;100.00;98591.56;4107530;28;20250;-62
2022/10/20 05:27:34;;;;;;;17.70;16.20;;;;;;;10.58;100.00;98587.16;4109044;28;20202;-62
2022/10/20 05:29:36;;;;;;;18.35;16.55;;;;;;;10.60;100.00;98587.75;4110065;28;20210;-63
2022/10/20 05:31:39;;;;;;;18.15;16.58;;;;;;;10.65;100.00;98598.78;4108319;28;20214;-62
2022/10/20 05:33:53;;;;;;;17.30;15.88;;;;;;;10.84;100.00;98592.81;4104575;28;20218;-65
2022/10/20 05:35:55;;;;;;;19.23;16.27;;;;;;;10.63;100.00;98604.53;4107161;28;20300;-62
2022/10/20 05:37:57;;;;;;;18.60;17.05;;;;;;;10.71;100.00;98606.00;4106049;28;20203;-63
2022/10/20 05:40:02;;;;;;;17.83;16.35;;;;;;;10.79;100.00;98599.03;4107766;28;20207;-64
2022/10/20 05:42:03;;;;;;;16.73;15.18;;;;;;;10.88;100.00;98595.88;4107798;28;20206;-61
2022/10/20 05:44:09;;;;;;;17.35;15.85;;;;;;;10.88;100.00;98602.19;4107743;28;20207;-64
2022/10/20 05:46:11;;;;;;;17.90;16.40;;;;;;;10.83;100.00;98583.75;4104084;28;20307;-61
2022/10/20 05:48:12;;;;;;;17.33;15.77;;;;;;;10.67;100.00;98600.19;4104311;28;20214;-62
2022/10/20 05:50:14;;;;;;;17.38;15.90;;;;;;;10.71;100.00;98617.78;4107079;28;20206;-63
2022/10/20 05:52:15;;;;;;;19.23;16.60;;;;;;;10.77;100.00;98628.56;4119223;28;20210;-64
2022/10/20 05:54:17;;;;;;;16.60;15.10;;;;;;;10.85;100.00;98632.78;4101834;28;20215;-66
2022/10/20 05:56:19;;;;;;;14.80;13.70;;;;;;;10.93;100.00;98615.94;4104077;28;20706;-62
2022/10/20 05:58:22;;;;;;;18.00;16.17;;;;;;;10.99;100.00;98615.78;4104352;28;20211;-61
2022/10/20 06:00:29;;;;;;;15.95;14.68;;;;;;;11.02;100.00;98626.22;4103271;28;20215;-63
2022/10/20 06:02:31;;;;;;;16.75;15.02;;;;;;;11.05;100.00;98628.47;4106144;28;20293;-63
2022/10/20 06:04:32;;;;;;;16.67;15.10;;;;;;;11.06;100.00;98632.88;4106880;28;20207;-61
2022/10/20 06:06:35;;;;;;;15.02;13.77;;;;;;;11.06;100.00;98638.34;4122373;28;20226;-62
2022/10/20 06:08:36;;;;;;;16.40;14.80;;;;;;;11.10;100.00;98638.69;4124637;28;20217;-62
2022/10/20 06:10:38;;;;;;;28.38;15.38;;;;;;;10.82;100.00;98631.38;4107412;28;20922;-61
2022/10/20 06:12:39;;;;;;;21.95;16.20;;;;;;;10.61;100.00;98616.78;4108263;28;20231;-62
2022/10/20 06:14:41;;;;;;;17.80;15.27;;;;;;;10.53;100.00;98619.91;4107646;28;20210;-61
2022/10/20 06:16:43;;;;;;;16.55;14.88;;;;;;;10.69;100.00;98624.59;4107813;28;20638;-65
2022/10/20 06:18:44;;;;;;;16.65;15.25;;;;;;;10.62;100.00;98623.91;4110207;28;20675;-61
2022/10/20 06:20:46;;;;;;;17.17;15.77;;;;;;;10.53;100.00;98628.13;4110198;28;20211;-62
2022/10/20 06:22:47;;;;;;;17.67;15.93;;;;;;;10.60;100.00;98621.41;4091725;29;20216;-62
2022/10/20 06:24:49;;;;;;;17.52;16.23;;;;;;;10.53;100.00;98614.44;4109296;28;20198;-64
2022/10/20 06:26:50;;;;;;;17.00;15.55;;;;;;;10.26;100.00;98597.84;4108148;28;20226;-63
2022/10/20 06:28:53;;;;;;;18.13;16.65;;;;;;;10.36;100.00;98592.53;4106809;28;20221;-62
2022/10/20 06:31:15;;;;;;;17.65;16.25;;;;;;;10.35;100.00;98599.09;4108886;28;20253;-62
2022/10/20 06:33:17;;;;;;;19.77;18.10;;;;;;;10.23;100.00;98586.56;4108672;28;20227;-65
2022/10/20 06:35:18;;;;;;;19.85;18.15;;;;;;;10.35;100.00;98598.28;4107288;28;20269;-66
2022/10/20 06:37:20;;;;;;;18.48;16.73;;;;;;;10.40;100.00;98603.81;4108910;28;20257;-63
2022/10/20 06:39:22;;;;;;;18.25;16.60;;;;;;;10.48;100.00;98600.69;4108018;28;20902;-65
2022/10/20 06:41:25;;;;;;;20.35;17.55;;;;;;;10.40;100.00;98595.59;4106621;28;20210;-63
2022/10/20 06:43:27;;;;;;;17.70;16.20;;;;;;;10.36;100.00;98595.25;4121385;28;20232;-66
2022/10/20 06:45:28;;;;;;;18.50;16.60;;;;;;;10.39;100.00;98596.69;4106525;28;20218;-65
2022/10/20 06:47:30;;;;;;;17.65;15.85;;;;;;;10.57;100.00;98599.19;4107820;28;20207;-64
2022/10/20 06:49:31;;;;;;;17.52;16.02;;;;;;;10.66;100.00;98601.28;4106196;28;21068;-63
2022/10/20 06:51:34;;;;;;;18.60;16.85;;;;;;;10.58;100.00;98607.16;4107590;28;20203;-63
2022/10/20 06:53:36;;;;;;;20.45;18.33;;;;;;;10.58;100.00;98607.16;4109017;28;20210;-63
2022/10/20 06:55:37;;;;;;;17.13;15.57;;;;;;;10.60;100.00;98610.47;4109689;28;20218;-65
2022/10/20 06:57:39;;;;;;;19.10;17.20;;;;;;;10.54;100.00;98610.66;4107570;28;20206;-65
2022/10/20 06:59:40;;;;;;;18.25;16.65;;;;;;;10.62;100.00;98613.78;4106963;28;20308;-66
2022/10/20 07:01:42;;;;;;;24.08;17.35;;;;;;;10.77;100.00;98615.94;4108874;28;20215;-63
2022/10/20 07:03:45;;;;;;;18.48;16.83;;;;;;;10.68;100.00;98601.84;4107206;28;20217;-63
2022/10/20 07:05:47;;;;;;;17.90;16.25;;;;;;;10.59;100.00;98602.50;4100624;28;20223;-63
2022/10/20 07:07:51;;;;;;;20.75;16.05;;;;;;;10.76;100.00;98608.81;4104321;28;20222;-63
2022/10/20 07:09:53;;;;;;;17.80;16.35;;;;;;;10.80;100.00;98591.66;4101847;28;20203;-63
2022/10/20 07:11:54;;;;;;;18.55;15.25;;;;;;;10.80;100.00;98594.38;4100364;28;21156;-63
2022/10/20 07:13:59;;;;;;;18.05;16.55;;;;;;;10.83;100.00;98583.75;4099440;28;20285;-63
2022/10/20 07:16:02;;;;;;;20.15;15.90;;;;;;;10.70;100.00;98579.72;4117968;28;20288;-63
2022/10/20 07:18:04;;;;;;;17.77;15.85;;;;;;;10.78;100.00;98580.94;4117015;28;20220;-65
2022/10/20 07:20:07;;;;;;;17.90;16.42;;;;;;;10.91;100.00;98586.06;4084149;28;20207;-66
2022/10/20 07:22:09;;;;;;;18.98;17.35;;;;;;;11.02;100.00;98592.53;4094892;28;20226;-62
2022/10/20 07:24:11;;;;;;;16.13;14.77;;;;;;;11.15;100.00;98593.03;4099375;28;20237;-63
2022/10/20 07:26:21;;;;;;;24.33;14.85;;;;;;;11.12;100.00;98582.56;4103938;28;20230;-69
2022/10/20 07:28:23;;;;;;;17.20;15.48;;;;;;;11.09;100.00;98593.19;4104431;28;20235;-63
2022/10/20 07:30:25;;;;;;;16.73;15.02;;;;;;;11.19;100.00;98587.88;4102697;28;20207;-63
2022/10/20 07:32:27;;;;;;;16.20;15.00;;;;;;;11.27;100.00;98601.97;4103933;28;20226;-64
2022/10/20 07:34:29;;;;;;;16.17;14.32;;;;;;;11.38;100.00;98620.19;4103865;28;20301;-61
2022/10/20 07:36:32;;;;;;;14.07;12.88;;;;;;;11.47;100.00;98629.66;4115307;28;20240;-63
2022/10/20 07:38:36;;;;;;;16.05;14.80;;;;;;;11.43;100.00;98623.00;4120586;28;20212;-63
2022/10/20 07:40:38;;;;;;;15.73;14.25;;;;;;;11.64;100.00;98622.22;4104706;28;20211;-65
2022/10/20 07:42:39;;;;;;;15.05;13.70;;;;;;;11.64;100.00;98624.97;4106017;28;20609;-67
2022/10/20 07:44:41;;;;;;;14.43;13.07;;;;;;;11.73;100.00;98623.47;4105797;28;21240;-67
2022/10/20 07:46:43;;;;;;;17.20;15.45;;;;;;;11.67;100.00;98627.22;4122053;28;20234;-67
2022/10/20 07:48:45;;;;;;;14.48;13.43;;;;;;;11.78;100.00;98631.72;4106334;28;20230;-63
2022/10/20 07:50:47;;;;;;;16.65;15.35;;;;;;;11.82;100.00;98626.56;4106840;28;20261;-64
2022/10/20 07:52:52;;;;;;;16.15;14.32;;;;;;;11.67;100.00;98627.22;4105646;28;20218;-66
2022/10/20 07:54:53;;;;;;;15.25;13.95;;;;;;;11.71;100.00;98625.59;4090357;28;20215;-63
2022/10/20 07:57:15;;;;;;;16.02;14.52;;;;;;;12.04;100.00;98625.47;4106665;28;20262;-63
2022/10/20 07:59:17;;;;;;;19.42;15.02;;;;;;;12.04;100.00;98614.50;4106113;28;20211;-65
2022/10/20 08:01:18;;;;;;;14.85;13.65;;;;;;;12.20;100.00;98624.56;4108494;28;20264;-66
2022/10/20 08:03:20;;;;;;;15.75;14.07;;;;;;;12.34;100.00;98630.47;4120842;28;20206;-63
2022/10/20 08:05:22;;;;;;;14.50;13.35;;;;;;;12.42;100.00;98628.09;4105028;28;20301;-63
2022/10/20 08:07:23;;;;;;;14.18;12.70;;;;;;;12.56;100.00;98639.50;4108151;28;20293;-63
2022/10/20 08:09:25;;;;;;;14.98;13.20;;;;;;;12.71;100.00;98632.22;4123149;28;20238;-65
2022/10/20 08:11:26;;;;;;;14.68;13.38;;;;;;;12.57;100.00;98630.16;4107292;28;20234;-65
2022/10/20 08:13:28;;;;;;;14.80;13.43;;;;;;;12.61;100.00;98632.13;4108465;28;20237;-63
2022/10/20 08:15:30;;;;;;;14.82;13.73;;;;;;;12.73;100.00;98635.53;4107917;28;20651;-63
2022/10/20 08:17:32;;;;;;;13.25;12.05;;;;;;;12.75;100.00;98633.34;4107902;28;20209;-64
2022/10/20 08:19:33;;;;;;;13.38;12.05;;;;;;;12.49;100.00;98622.38;4107500;28;20207;-63
2022/10/20 08:21:42;;;;;;;14.45;12.63;;;;;;;12.42;100.00;98622.59;4099162;28;20218;-67
2022/10/20 08:23:45;;;;;;;15.05;13.32;;;;;;;12.37;100.00;98625.28;4100015;28;20215;-63
2022/10/20 08:25:47;;;;;;;14.05;12.95;;;;;;;12.35;100.00;98627.47;4099185;28;20237;-65
2022/10/20 08:27:48;;;;;;;13.30;12.13;;;;;;;12.43;100.00;98627.00;4103224;28;20207;-63
2022/10/20 08:29:50;;;;;;;13.52;11.85;;;;;;;12.33;100.00;98623.31;4104746;28;20211;-63
2022/10/20 08:32:13;;;;;;;14.85;12.80;;;;;;;12.15;100.00;98621.78;4089311;28;20207;-67
2022/10/20 08:34:14;;;;;;;13.50;12.40;;;;;;;12.30;100.00;98624.66;4103599;28;20337;-66
2022/10/20 08:36:16;;;;;;;16.63;11.77;;;;;;;12.29;100.00;98623.00;4103542;28;20254;-67
2022/10/20 08:38:17;;;;;;;13.05;12.05;;;;;;;12.42;100.00;98622.59;4105697;28;20241;-66
2022/10/20 08:40:23;;;;;;;13.45;12.15;;;;;;;12.49;100.00;98625.13;4102870;28;20211;-63
2022/10/20 08:42:25;;;;;;;16.45;11.23;;;;;;;12.57;100.00;98614.50;4100920;28;20206;-68
2022/10/20 08:44:30;;;;;;;13.30;11.98;;;;;;;12.75;100.00;98622.38;4101769;28;20219;-64
2022/10/20 08:46:34;;;;;;;13.52;12.10;;;;;;;12.90;100.00;98629.94;4099915;28;20239;-64
2022/10/20 08:48:36;;;;;;;10.85;10.07;;;;;;;12.97;100.00;98620.38;4128712;23;20236;-50
2022/10/20 08:50:43;;;;;;;12.77;11.38;;;;;;;12.99;100.00;98622.88;4118826;28;20211;-48
2022/10/20 08:52:46;;;;;;;11.65;10.70;;;;;;;13.05;100.00;98617.16;4124033;28;20214;-49
2022/10/20 08:54:49;;;;;;;13.45;11.35;;;;;;;13.01;100.00;98621.53;4118167;28;22148;-49
2022/10/20 08:56:51;;;;;;;18.27;10.45;;;;;;;12.99;100.00;98631.97;4122066;28;20297;-49
2022/10/20 08:58:53;;;;;;;11.93;10.98;;;;;;;12.77;100.00;98620.19;4124140;28;20220;-51
2022/10/20 09:00:57;;;;;;;10.70;9.70;;;;;;;12.88;100.00;98621.09;4123736;28;20202;-50
2022/10/20 09:03:17;;;;;;;11.57;10.45;;;;;;;12.95;100.00;98622.56;4138282;28;20554;-51
2022/10/20 09:05:24;;;;;;;11.73;10.65;;;;;;;12.98;100.00;98622.03;4121505;28;20241;-50
2022/10/20 09:07:31;;;;;;;10.40;9.27;;;;;;;13.10;100.00;98611.69;4110137;28;20198;-50
2022/10/20 09:09:33;;;;;;;8.50;7.65;;;;;;;13.19;100.00;98612.88;4126135;28;20203;-50
2022/10/20 09:11:36;;;;;;;10.23;9.43;;;;;;;13.22;100.00;98606.84;4108099;28;20242;-49
2022/10/20 09:13:38;;;;;;;11.20;9.00;;;;;;;13.34;100.00;98610.22;4135767;28;20304;-50
2022/10/20 09:15:40;;;;;;;10.30;9.35;;;;;;;13.49;100.00;98610.31;4109377;28;21596;-50
2022/10/20 09:17:49;;;;;;;11.32;8.90;;;;;;;13.47;100.00;98592.41;4117901;28;20209;-50
2022/10/20 09:19:54;;;;;;;12.32;9.55;;;;;;;13.47;100.00;98618.00;4128712;28;20202;-50
2022/10/20 09:22:04;;;;;;;10.75;9.45;;;;;;;13.29;100.00;98606.63;4117503;28;20199;-50
2022/10/20 09:24:06;;;;;;;9.60;8.90;;;;;;;13.46;100.00;98613.59;4117980;28;20241;-50
2022/10/20 09:26:19;;;;;;;10.80;9.80;;;;;;;13.54;100.00;98609.50;4119928;28;20232;-50